sensor_id;sensor_type;location;lat;lon;timestamp;P1;durP1;ratioP1;P2;durP2;ratioP2
65009;SDS011;51556;50.002;22.014;2023-01-13T00:01:41;13.30;;;7.30;;
65009;SDS011;51556;50.002;22.014;2023-01-13T00:04:08;10.60;;;6.00;;
65009;SDS011;51556;50.002;22.014;2023-01-13T00:06:35;12.90;;;7.50;;
65009;SDS011;51556;50.002;22.014;2023-01-13T00:09:00;13.30;;;7.20;;
65009;SDS011;51556;50.002;22.014;2023-01-13T00:11:26;15.00;;;7.80;;
65009;SDS011;51556;50.002;22.014;2023-01-13T00:13:52;13.00;;;7.70;;
65009;SDS011;51556;50.002;22.014;2023-01-13T00:16:18;11.50;;;6.10;;
65009;SDS011;51556;50.002;22.014;2023-01-13T00:18:45;14.40;;;7.30;;
65009;SDS011;51556;50.002;22.014;2023-01-13T00:23:38;12.30;;;7.00;;
65009;SDS011;51556;50.002;22.014;2023-01-13T00:26:05;13.20;;;7.10;;
65009;SDS011;51556;50.002;22.014;2023-01-13T00:28:32;12.50;;;6.90;;
65009;SDS011;51556;50.002;22.014;2023-01-13T00:31:11;11.70;;;6.50;;
65009;SDS011;51556;50.002;22.014;2023-01-13T00:33:39;12.50;;;7.20;;
65009;SDS011;51556;50.002;22.014;2023-01-13T00:36:06;10.70;;;6.70;;
65009;SDS011;51556;50.002;22.014;2023-01-13T00:38:33;12.20;;;7.30;;
65009;SDS011;51556;50.002;22.014;2023-01-13T00:41:02;10.80;;;6.20;;
65009;SDS011;51556;50.002;22.014;2023-01-13T00:43:30;9.90;;;6.20;;
65009;SDS011;51556;50.002;22.014;2023-01-13T00:45:57;14.50;;;7.20;;
65009;SDS011;51556;50.002;22.014;2023-01-13T00:48:23;12.00;;;6.60;;
65009;SDS011;51556;50.002;22.014;2023-01-13T00:50:56;11.00;;;6.30;;
65009;SDS011;51556;50.002;22.014;2023-01-13T00:53:23;13.00;;;7.90;;
65009;SDS011;51556;50.002;22.014;2023-01-13T00:55:57;11.50;;;7.40;;
65009;SDS011;51556;50.002;22.014;2023-01-13T00:58:23;11.40;;;5.90;;
65009;SDS011;51556;50.002;22.014;2023-01-13T01:00:49;11.50;;;6.20;;
65009;SDS011;51556;50.002;22.014;2023-01-13T01:03:14;9.10;;;6.20;;
65009;SDS011;51556;50.002;22.014;2023-01-13T01:05:40;9.70;;;5.50;;
65009;SDS011;51556;50.002;22.014;2023-01-13T01:08:05;9.40;;;5.70;;
65009;SDS011;51556;50.002;22.014;2023-01-13T01:10:31;8.40;;;4.90;;
65009;SDS011;51556;50.002;22.014;2023-01-13T01:12:56;11.80;;;5.60;;
65009;SDS011;51556;50.002;22.014;2023-01-13T01:15:22;11.00;;;5.90;;
65009;SDS011;51556;50.002;22.014;2023-01-13T01:17:47;12.40;;;6.90;;
65009;SDS011;51556;50.002;22.014;2023-01-13T01:20:12;9.30;;;5.10;;
65009;SDS011;51556;50.002;22.014;2023-01-13T01:22:38;10.60;;;5.90;;
65009;SDS011;51556;50.002;22.014;2023-01-13T01:25:04;10.50;;;5.80;;
65009;SDS011;51556;50.002;22.014;2023-01-13T01:27:29;8.60;;;5.20;;
65009;SDS011;51556;50.002;22.014;2023-01-13T01:29:55;10.90;;;6.10;;
65009;SDS011;51556;50.002;22.014;2023-01-13T01:32:20;11.20;;;5.60;;
65009;SDS011;51556;50.002;22.014;2023-01-13T01:34:46;9.30;;;5.00;;
65009;SDS011;51556;50.002;22.014;2023-01-13T01:37:11;9.20;;;5.30;;
65009;SDS011;51556;50.002;22.014;2023-01-13T01:39:37;14.20;;;6.20;;
65009;SDS011;51556;50.002;22.014;2023-01-13T01:42:02;10.70;;;5.30;;
65009;SDS011;51556;50.002;22.014;2023-01-13T01:47:18;10.00;;;4.60;;
65009;SDS011;51556;50.002;22.014;2023-01-13T01:49:45;7.70;;;4.50;;
65009;SDS011;51556;50.002;22.014;2023-01-13T01:52:13;9.00;;;4.80;;
65009;SDS011;51556;50.002;22.014;2023-01-13T01:54:43;8.40;;;4.40;;
65009;SDS011;51556;50.002;22.014;2023-01-13T01:57:17;9.70;;;4.00;;
65009;SDS011;51556;50.002;22.014;2023-01-13T01:59:50;8.60;;;4.10;;
65009;SDS011;51556;50.002;22.014;2023-01-13T02:02:16;9.50;;;4.90;;
65009;SDS011;51556;50.002;22.014;2023-01-13T02:04:44;8.50;;;3.90;;
65009;SDS011;51556;50.002;22.014;2023-01-13T02:07:25;6.80;;;3.40;;
65009;SDS011;51556;50.002;22.014;2023-01-13T02:09:56;7.00;;;3.60;;
65009;SDS011;51556;50.002;22.014;2023-01-13T02:12:25;4.80;;;3.20;;
65009;SDS011;51556;50.002;22.014;2023-01-13T02:15:09;8.40;;;4.10;;
65009;SDS011;51556;50.002;22.014;2023-01-13T02:31:31;9.00;;;4.30;;
65009;SDS011;51556;50.002;22.014;2023-01-13T02:34:10;5.40;;;2.80;;
65009;SDS011;51556;50.002;22.014;2023-01-13T02:39:45;5.90;;;3.20;;
65009;SDS011;51556;50.002;22.014;2023-01-13T02:42:13;7.30;;;3.90;;
65009;SDS011;51556;50.002;22.014;2023-01-13T02:45:36;6.30;;;3.30;;
65009;SDS011;51556;50.002;22.014;2023-01-13T02:48:07;6.60;;;3.40;;
65009;SDS011;51556;50.002;22.014;2023-01-13T02:50:36;6.70;;;3.70;;
65009;SDS011;51556;50.002;22.014;2023-01-13T02:53:10;6.90;;;3.60;;
65009;SDS011;51556;50.002;22.014;2023-01-13T02:55:53;6.30;;;2.70;;
65009;SDS011;51556;50.002;22.014;2023-01-13T02:58:23;8.10;;;4.00;;
65009;SDS011;51556;50.002;22.014;2023-01-13T03:00:51;9.90;;;4.40;;
65009;SDS011;51556;50.002;22.014;2023-01-13T03:03:16;10.00;;;4.30;;
65009;SDS011;51556;50.002;22.014;2023-01-13T03:05:43;9.00;;;4.90;;
65009;SDS011;51556;50.002;22.014;2023-01-13T03:16:19;7.40;;;3.70;;
65009;SDS011;51556;50.002;22.014;2023-01-13T03:23:57;5.30;;;3.00;;
65009;SDS011;51556;50.002;22.014;2023-01-13T03:26:45;6.80;;;3.70;;
65009;SDS011;51556;50.002;22.014;2023-01-13T03:31:45;7.90;;;3.70;;
65009;SDS011;51556;50.002;22.014;2023-01-13T03:34:18;7.40;;;3.70;;
65009;SDS011;51556;50.002;22.014;2023-01-13T03:36:48;11.00;;;4.70;;
65009;SDS011;51556;50.002;22.014;2023-01-13T03:39:21;6.60;;;3.40;;
65009;SDS011;51556;50.002;22.014;2023-01-13T03:41:54;7.30;;;3.90;;
65009;SDS011;51556;50.002;22.014;2023-01-13T03:47:06;7.70;;;3.50;;
65009;SDS011;51556;50.002;22.014;2023-01-13T03:52:18;8.70;;;4.00;;
65009;SDS011;51556;50.002;22.014;2023-01-13T03:54:50;6.00;;;3.30;;
65009;SDS011;51556;50.002;22.014;2023-01-13T03:57:22;7.40;;;3.80;;
65009;SDS011;51556;50.002;22.014;2023-01-13T04:02:41;6.70;;;2.90;;
65009;SDS011;51556;50.002;22.014;2023-01-13T04:05:12;6.90;;;3.20;;
65009;SDS011;51556;50.002;22.014;2023-01-13T04:10:31;7.00;;;3.50;;
65009;SDS011;51556;50.002;22.014;2023-01-13T04:13:05;6.50;;;3.50;;
65009;SDS011;51556;50.002;22.014;2023-01-13T04:15:35;8.90;;;3.20;;
65009;SDS011;51556;50.002;22.014;2023-01-13T04:20:35;5.00;;;3.50;;
65009;SDS011;51556;50.002;22.014;2023-01-13T04:23:02;7.80;;;3.40;;
65009;SDS011;51556;50.002;22.014;2023-01-13T04:25:27;6.20;;;3.20;;
65009;SDS011;51556;50.002;22.014;2023-01-13T04:27:53;10.90;;;3.60;;
65009;SDS011;51556;50.002;22.014;2023-01-13T04:30:18;6.50;;;3.70;;
65009;SDS011;51556;50.002;22.014;2023-01-13T04:32:44;7.20;;;3.40;;
65009;SDS011;51556;50.002;22.014;2023-01-13T04:35:09;6.50;;;3.70;;
65009;SDS011;51556;50.002;22.014;2023-01-13T04:37:35;5.20;;;3.30;;
65009;SDS011;51556;50.002;22.014;2023-01-13T04:40:00;5.80;;;4.00;;
65009;SDS011;51556;50.002;22.014;2023-01-13T04:42:26;7.70;;;3.20;;
65009;SDS011;51556;50.002;22.014;2023-01-13T04:44:51;8.10;;;4.00;;
65009;SDS011;51556;50.002;22.014;2023-01-13T04:47:17;8.70;;;3.80;;
65009;SDS011;51556;50.002;22.014;2023-01-13T04:49:42;4.80;;;3.20;;
65009;SDS011;51556;50.002;22.014;2023-01-13T04:52:07;5.70;;;3.30;;
65009;SDS011;51556;50.002;22.014;2023-01-13T04:54:33;7.00;;;3.70;;
65009;SDS011;51556;50.002;22.014;2023-01-13T04:56:58;4.30;;;2.90;;
65009;SDS011;51556;50.002;22.014;2023-01-13T04:59:24;8.80;;;3.70;;
65009;SDS011;51556;50.002;22.014;2023-01-13T05:01:49;6.80;;;4.20;;
65009;SDS011;51556;50.002;22.014;2023-01-13T05:04:15;7.10;;;3.70;;
65009;SDS011;51556;50.002;22.014;2023-01-13T05:06:41;7.20;;;3.80;;
65009;SDS011;51556;50.002;22.014;2023-01-13T05:09:06;7.20;;;3.60;;
65009;SDS011;51556;50.002;22.014;2023-01-13T05:11:32;4.80;;;2.70;;
65009;SDS011;51556;50.002;22.014;2023-01-13T05:14:16;8.20;;;4.00;;
65009;SDS011;51556;50.002;22.014;2023-01-13T05:17:00;7.90;;;3.70;;
65009;SDS011;51556;50.002;22.014;2023-01-13T05:19:27;6.60;;;3.60;;
65009;SDS011;51556;50.002;22.014;2023-01-13T05:21:58;7.60;;;3.40;;
65009;SDS011;51556;50.002;22.014;2023-01-13T05:24:42;8.20;;;3.80;;
65009;SDS011;51556;50.002;22.014;2023-01-13T05:27:26;7.10;;;4.00;;
65009;SDS011;51556;50.002;22.014;2023-01-13T05:29:52;8.10;;;4.20;;
65009;SDS011;51556;50.002;22.014;2023-01-13T05:32:19;7.30;;;4.10;;
65009;SDS011;51556;50.002;22.014;2023-01-13T05:34:45;4.70;;;3.20;;
65009;SDS011;51556;50.002;22.014;2023-01-13T05:37:10;6.70;;;3.90;;
65009;SDS011;51556;50.002;22.014;2023-01-13T05:39:37;6.10;;;3.70;;
65009;SDS011;51556;50.002;22.014;2023-01-13T05:42:24;7.00;;;4.20;;
65009;SDS011;51556;50.002;22.014;2023-01-13T05:45:08;9.00;;;4.10;;
65009;SDS011;51556;50.002;22.014;2023-01-13T05:47:34;7.10;;;4.00;;
65009;SDS011;51556;50.002;22.014;2023-01-13T05:49:59;8.50;;;3.80;;
65009;SDS011;51556;50.002;22.014;2023-01-13T05:52:25;8.00;;;4.70;;
65009;SDS011;51556;50.002;22.014;2023-01-13T05:54:50;6.30;;;3.80;;
65009;SDS011;51556;50.002;22.014;2023-01-13T05:57:16;10.00;;;4.50;;
65009;SDS011;51556;50.002;22.014;2023-01-13T05:59:42;8.10;;;4.80;;
65009;SDS011;51556;50.002;22.014;2023-01-13T06:02:07;9.00;;;4.60;;
65009;SDS011;51556;50.002;22.014;2023-01-13T06:04:33;7.00;;;3.90;;
65009;SDS011;51556;50.002;22.014;2023-01-13T06:06:58;6.20;;;4.20;;
65009;SDS011;51556;50.002;22.014;2023-01-13T06:09:24;7.90;;;4.60;;
65009;SDS011;51556;50.002;22.014;2023-01-13T06:11:49;8.10;;;4.70;;
65009;SDS011;51556;50.002;22.014;2023-01-13T06:14:15;8.20;;;4.80;;
65009;SDS011;51556;50.002;22.014;2023-01-13T06:16:40;7.90;;;4.30;;
65009;SDS011;51556;50.002;22.014;2023-01-13T06:19:06;7.70;;;4.80;;
65009;SDS011;51556;50.002;22.014;2023-01-13T06:21:37;7.10;;;4.30;;
65009;SDS011;51556;50.002;22.014;2023-01-13T06:24:03;6.40;;;4.40;;
65009;SDS011;51556;50.002;22.014;2023-01-13T06:26:29;10.40;;;4.20;;
65009;SDS011;51556;50.002;22.014;2023-01-13T06:29:00;6.20;;;3.90;;
65009;SDS011;51556;50.002;22.014;2023-01-13T06:31:26;6.10;;;3.50;;
65009;SDS011;51556;50.002;22.014;2023-01-13T06:34:12;7.90;;;4.00;;
65009;SDS011;51556;50.002;22.014;2023-01-13T06:36:40;7.10;;;4.20;;
65009;SDS011;51556;50.002;22.014;2023-01-13T06:39:10;7.20;;;4.20;;
65009;SDS011;51556;50.002;22.014;2023-01-13T06:41:40;8.20;;;4.10;;
65009;SDS011;51556;50.002;22.014;2023-01-13T06:44:24;6.70;;;4.10;;
65009;SDS011;51556;50.002;22.014;2023-01-13T06:46:50;8.40;;;4.50;;
65009;SDS011;51556;50.002;22.014;2023-01-13T06:49:16;7.00;;;4.20;;
65009;SDS011;51556;50.002;22.014;2023-01-13T06:51:41;6.60;;;4.10;;
65009;SDS011;51556;50.002;22.014;2023-01-13T06:54:07;8.50;;;4.10;;
65009;SDS011;51556;50.002;22.014;2023-01-13T06:56:33;8.50;;;4.40;;
65009;SDS011;51556;50.002;22.014;2023-01-13T06:58:58;7.00;;;3.60;;
65009;SDS011;51556;50.002;22.014;2023-01-13T07:01:24;8.00;;;4.30;;
65009;SDS011;51556;50.002;22.014;2023-01-13T07:03:50;6.80;;;4.40;;
65009;SDS011;51556;50.002;22.014;2023-01-13T07:06:15;8.20;;;3.90;;
65009;SDS011;51556;50.002;22.014;2023-01-13T07:08:41;7.30;;;4.20;;
65009;SDS011;51556;50.002;22.014;2023-01-13T07:11:06;8.70;;;4.60;;
65009;SDS011;51556;50.002;22.014;2023-01-13T07:13:35;7.60;;;4.00;;
65009;SDS011;51556;50.002;22.014;2023-01-13T07:16:19;9.40;;;4.90;;
65009;SDS011;51556;50.002;22.014;2023-01-13T07:18:45;10.00;;;4.60;;
65009;SDS011;51556;50.002;22.014;2023-01-13T07:21:11;6.50;;;3.80;;
65009;SDS011;51556;50.002;22.014;2023-01-13T07:23:43;7.40;;;4.10;;
65009;SDS011;51556;50.002;22.014;2023-01-13T07:26:10;8.20;;;3.90;;
65009;SDS011;51556;50.002;22.014;2023-01-13T07:28:37;10.40;;;5.20;;
65009;SDS011;51556;50.002;22.014;2023-01-13T07:31:03;8.70;;;4.90;;
65009;SDS011;51556;50.002;22.014;2023-01-13T07:33:30;8.90;;;4.70;;
65009;SDS011;51556;50.002;22.014;2023-01-13T07:35:59;9.50;;;5.30;;
65009;SDS011;51556;50.002;22.014;2023-01-13T07:38:26;9.00;;;4.60;;
65009;SDS011;51556;50.002;22.014;2023-01-13T07:40:52;7.00;;;4.40;;
65009;SDS011;51556;50.002;22.014;2023-01-13T07:43:18;8.50;;;4.60;;
65009;SDS011;51556;50.002;22.014;2023-01-13T07:46:02;8.70;;;4.50;;
65009;SDS011;51556;50.002;22.014;2023-01-13T07:48:30;9.20;;;5.00;;
65009;SDS011;51556;50.002;22.014;2023-01-13T07:51:00;8.40;;;4.80;;
65009;SDS011;51556;50.002;22.014;2023-01-13T07:53:27;10.70;;;4.90;;
65009;SDS011;51556;50.002;22.014;2023-01-13T07:55:56;9.50;;;5.40;;
65009;SDS011;51556;50.002;22.014;2023-01-13T07:58:23;11.20;;;4.90;;
65009;SDS011;51556;50.002;22.014;2023-01-13T08:00:49;8.80;;;4.90;;
65009;SDS011;51556;50.002;22.014;2023-01-13T08:03:15;9.30;;;4.50;;
65009;SDS011;51556;50.002;22.014;2023-01-13T08:05:41;8.00;;;5.10;;
65009;SDS011;51556;50.002;22.014;2023-01-13T08:08:06;8.20;;;4.40;;
65009;SDS011;51556;50.002;22.014;2023-01-13T08:10:32;8.30;;;4.80;;
65009;SDS011;51556;50.002;22.014;2023-01-13T08:12:57;8.40;;;5.00;;
65009;SDS011;51556;50.002;22.014;2023-01-13T08:15:41;9.90;;;5.30;;
65009;SDS011;51556;50.002;22.014;2023-01-13T08:18:08;8.90;;;4.40;;
65009;SDS011;51556;50.002;22.014;2023-01-13T08:20:33;10.10;;;4.60;;
65009;SDS011;51556;50.002;22.014;2023-01-13T08:22:59;7.20;;;4.50;;
65009;SDS011;51556;50.002;22.014;2023-01-13T08:25:26;9.10;;;4.90;;
65009;SDS011;51556;50.002;22.014;2023-01-13T08:27:53;8.70;;;4.40;;
65009;SDS011;51556;50.002;22.014;2023-01-13T08:30:19;7.80;;;4.50;;
65009;SDS011;51556;50.002;22.014;2023-01-13T08:32:45;8.20;;;4.90;;
65009;SDS011;51556;50.002;22.014;2023-01-13T08:35:12;9.00;;;5.00;;
65009;SDS011;51556;50.002;22.014;2023-01-13T08:37:38;8.60;;;5.50;;
65009;SDS011;51556;50.002;22.014;2023-01-13T08:40:04;8.80;;;5.10;;
65009;SDS011;51556;50.002;22.014;2023-01-13T08:42:30;10.90;;;5.80;;
65009;SDS011;51556;50.002;22.014;2023-01-13T08:44:56;7.90;;;5.10;;
65009;SDS011;51556;50.002;22.014;2023-01-13T08:47:22;9.20;;;5.30;;
65009;SDS011;51556;50.002;22.014;2023-01-13T08:49:48;10.20;;;5.00;;
65009;SDS011;51556;50.002;22.014;2023-01-13T08:52:14;9.70;;;5.40;;
65009;SDS011;51556;50.002;22.014;2023-01-13T08:54:39;9.40;;;5.00;;
65009;SDS011;51556;50.002;22.014;2023-01-13T08:57:05;8.50;;;4.70;;
65009;SDS011;51556;50.002;22.014;2023-01-13T08:59:31;8.50;;;4.80;;
65009;SDS011;51556;50.002;22.014;2023-01-13T09:01:57;7.70;;;4.30;;
65009;SDS011;51556;50.002;22.014;2023-01-13T09:04:24;10.50;;;5.30;;
65009;SDS011;51556;50.002;22.014;2023-01-13T09:06:52;9.10;;;5.20;;
65009;SDS011;51556;50.002;22.014;2023-01-13T09:09:18;8.60;;;5.20;;
65009;SDS011;51556;50.002;22.014;2023-01-13T09:11:45;10.30;;;5.60;;
65009;SDS011;51556;50.002;22.014;2023-01-13T09:14:32;10.70;;;5.90;;
65009;SDS011;51556;50.002;22.014;2023-01-13T09:16:59;9.30;;;5.10;;
65009;SDS011;51556;50.002;22.014;2023-01-13T09:19:25;10.30;;;4.60;;
65009;SDS011;51556;50.002;22.014;2023-01-13T09:21:51;10.20;;;5.10;;
65009;SDS011;51556;50.002;22.014;2023-01-13T09:24:17;9.60;;;5.00;;
65009;SDS011;51556;50.002;22.014;2023-01-13T09:26:43;6.40;;;4.20;;
65009;SDS011;51556;50.002;22.014;2023-01-13T09:29:09;11.20;;;5.60;;
65009;SDS011;51556;50.002;22.014;2023-01-13T09:31:34;10.40;;;5.80;;
65009;SDS011;51556;50.002;22.014;2023-01-13T09:34:00;11.10;;;5.70;;
65009;SDS011;51556;50.002;22.014;2023-01-13T09:36:45;9.00;;;5.10;;
65009;SDS011;51556;50.002;22.014;2023-01-13T09:39:11;9.70;;;5.10;;
65009;SDS011;51556;50.002;22.014;2023-01-13T09:41:39;8.10;;;4.70;;
65009;SDS011;51556;50.002;22.014;2023-01-13T09:44:44;9.50;;;5.20;;
65009;SDS011;51556;50.002;22.014;2023-01-13T09:47:28;8.30;;;4.40;;
65009;SDS011;51556;50.002;22.014;2023-01-13T09:50:14;8.20;;;4.80;;
65009;SDS011;51556;50.002;22.014;2023-01-13T09:52:48;9.20;;;5.00;;
65009;SDS011;51556;50.002;22.014;2023-01-13T09:55:15;7.30;;;3.90;;
65009;SDS011;51556;50.002;22.014;2023-01-13T09:57:42;9.20;;;5.00;;
65009;SDS011;51556;50.002;22.014;2023-01-13T10:00:12;7.30;;;4.00;;
65009;SDS011;51556;50.002;22.014;2023-01-13T10:05:46;8.90;;;4.70;;
65009;SDS011;51556;50.002;22.014;2023-01-13T10:08:32;7.70;;;4.50;;
65009;SDS011;51556;50.002;22.014;2023-01-13T10:13:49;7.90;;;4.30;;
65009;SDS011;51556;50.002;22.014;2023-01-13T10:21:33;7.00;;;4.00;;
65009;SDS011;51556;50.002;22.014;2023-01-13T10:24:12;7.30;;;3.90;;
65009;SDS011;51556;50.002;22.014;2023-01-13T10:26:58;7.60;;;4.20;;
65009;SDS011;51556;50.002;22.014;2023-01-13T10:29:29;6.30;;;4.00;;
65009;SDS011;51556;50.002;22.014;2023-01-13T10:31:56;7.70;;;4.30;;
65009;SDS011;51556;50.002;22.014;2023-01-13T10:34:22;8.80;;;4.80;;
65009;SDS011;51556;50.002;22.014;2023-01-13T10:36:57;8.20;;;4.50;;
65009;SDS011;51556;50.002;22.014;2023-01-13T10:39:37;8.00;;;4.50;;
65009;SDS011;51556;50.002;22.014;2023-01-13T10:42:15;7.40;;;4.30;;
65009;SDS011;51556;50.002;22.014;2023-01-13T10:45:00;7.30;;;3.70;;
65009;SDS011;51556;50.002;22.014;2023-01-13T10:47:29;8.50;;;4.40;;
65009;SDS011;51556;50.002;22.014;2023-01-13T10:50:01;9.10;;;4.80;;
65009;SDS011;51556;50.002;22.014;2023-01-13T10:52:28;8.20;;;4.30;;
65009;SDS011;51556;50.002;22.014;2023-01-13T10:54:55;7.90;;;4.20;;
65009;SDS011;51556;50.002;22.014;2023-01-13T10:57:25;8.20;;;4.50;;
65009;SDS011;51556;50.002;22.014;2023-01-13T10:59:51;6.60;;;4.20;;
65009;SDS011;51556;50.002;22.014;2023-01-13T11:10:20;7.80;;;4.40;;
65009;SDS011;51556;50.002;22.014;2023-01-13T11:16:26;9.20;;;5.10;;
65009;SDS011;51556;50.002;22.014;2023-01-13T11:18:40;5.90;;;3.50;;
65009;SDS011;51556;50.002;22.014;2023-01-13T11:21:33;6.90;;;3.70;;
65009;SDS011;51556;50.002;22.014;2023-01-13T11:24:04;9.70;;;4.20;;
65009;SDS011;51556;50.002;22.014;2023-01-13T11:26:43;8.50;;;4.70;;
65009;SDS011;51556;50.002;22.014;2023-01-13T11:29:35;7.90;;;4.70;;
65009;SDS011;51556;50.002;22.014;2023-01-13T11:32:07;7.90;;;4.20;;
65009;SDS011;51556;50.002;22.014;2023-01-13T11:34:38;7.00;;;3.80;;
65009;SDS011;51556;50.002;22.014;2023-01-13T11:37:19;11.30;;;4.30;;
65009;SDS011;51556;50.002;22.014;2023-01-13T11:42:48;7.80;;;4.40;;
65009;SDS011;51556;50.002;22.014;2023-01-13T11:45:41;9.10;;;4.50;;
65009;SDS011;51556;50.002;22.014;2023-01-13T11:48:16;7.30;;;4.30;;
65009;SDS011;51556;50.002;22.014;2023-01-13T11:50:47;6.70;;;4.20;;
65009;SDS011;51556;50.002;22.014;2023-01-13T11:53:31;7.50;;;4.70;;
65009;SDS011;51556;50.002;22.014;2023-01-13T11:59:13;8.10;;;4.00;;
65009;SDS011;51556;50.002;22.014;2023-01-13T12:13:13;10.80;;;5.60;;
65009;SDS011;51556;50.002;22.014;2023-01-13T12:21:21;11.50;;;5.10;;
65009;SDS011;51556;50.002;22.014;2023-01-13T12:26:51;7.20;;;4.80;;
65009;SDS011;51556;50.002;22.014;2023-01-13T12:32:01;7.80;;;4.50;;
65009;SDS011;51556;50.002;22.014;2023-01-13T12:43:14;8.70;;;4.50;;
65009;SDS011;51556;50.002;22.014;2023-01-13T12:56:57;6.90;;;4.30;;
65009;SDS011;51556;50.002;22.014;2023-01-13T13:02:20;7.40;;;4.50;;
65009;SDS011;51556;50.002;22.014;2023-01-13T13:09:56;8.40;;;4.30;;
65009;SDS011;51556;50.002;22.014;2023-01-13T13:15:24;9.60;;;5.00;;
65009;SDS011;51556;50.002;22.014;2023-01-13T13:26:24;7.00;;;4.10;;
65009;SDS011;51556;50.002;22.014;2023-01-13T13:32:07;8.30;;;5.00;;
65009;SDS011;51556;50.002;22.014;2023-01-13T13:39:56;8.70;;;4.80;;
65009;SDS011;51556;50.002;22.014;2023-01-13T13:42:46;10.10;;;5.20;;
65009;SDS011;51556;50.002;22.014;2023-01-13T13:45:47;9.70;;;4.80;;
65009;SDS011;51556;50.002;22.014;2023-01-13T13:48:33;13.70;;;7.70;;
65009;SDS011;51556;50.002;22.014;2023-01-13T13:50:59;9.10;;;5.30;;
65009;SDS011;51556;50.002;22.014;2023-01-13T13:53:34;9.50;;;5.50;;
65009;SDS011;51556;50.002;22.014;2023-01-13T13:56:05;9.60;;;4.90;;
65009;SDS011;51556;50.002;22.014;2023-01-13T13:58:40;8.90;;;5.00;;
65009;SDS011;51556;50.002;22.014;2023-01-13T14:01:06;11.10;;;6.20;;
65009;SDS011;51556;50.002;22.014;2023-01-13T14:03:33;9.70;;;5.20;;
65009;SDS011;51556;50.002;22.014;2023-01-13T14:06:01;10.50;;;6.10;;
65009;SDS011;51556;50.002;22.014;2023-01-13T14:08:29;8.40;;;4.70;;
65009;SDS011;51556;50.002;22.014;2023-01-13T14:10:57;9.00;;;4.50;;
65009;SDS011;51556;50.002;22.014;2023-01-13T14:13:24;9.30;;;5.20;;
65009;SDS011;51556;50.002;22.014;2023-01-13T14:15:57;9.80;;;5.70;;
65009;SDS011;51556;50.002;22.014;2023-01-13T14:18:25;13.70;;;7.00;;
65009;SDS011;51556;50.002;22.014;2023-01-13T14:20:53;14.30;;;8.60;;
65009;SDS011;51556;50.002;22.014;2023-01-13T14:23:21;21.30;;;11.40;;
65009;SDS011;51556;50.002;22.014;2023-01-13T14:25:50;11.60;;;7.60;;
65009;SDS011;51556;50.002;22.014;2023-01-13T14:28:19;10.80;;;7.00;;
65009;SDS011;51556;50.002;22.014;2023-01-13T14:30:47;11.20;;;6.10;;
65009;SDS011;51556;50.002;22.014;2023-01-13T14:33:15;12.00;;;7.20;;
65009;SDS011;51556;50.002;22.014;2023-01-13T14:38:38;12.60;;;7.50;;
65009;SDS011;51556;50.002;22.014;2023-01-13T14:41:11;11.70;;;6.90;;
65009;SDS011;51556;50.002;22.014;2023-01-13T14:43:43;14.40;;;7.90;;
65009;SDS011;51556;50.002;22.014;2023-01-13T14:46:09;12.30;;;6.90;;
65009;SDS011;51556;50.002;22.014;2023-01-13T14:48:35;17.20;;;7.40;;
65009;SDS011;51556;50.002;22.014;2023-01-13T14:51:02;12.60;;;6.20;;
65009;SDS011;51556;50.002;22.014;2023-01-13T15:04:53;12.00;;;6.60;;
65009;SDS011;51556;50.002;22.014;2023-01-13T15:07:25;11.90;;;6.70;;
65009;SDS011;51556;50.002;22.014;2023-01-13T15:09:56;10.50;;;5.70;;
65009;SDS011;51556;50.002;22.014;2023-01-13T15:15:00;15.00;;;7.00;;
65009;SDS011;51556;50.002;22.014;2023-01-13T15:17:27;14.30;;;6.40;;
65009;SDS011;51556;50.002;22.014;2023-01-13T15:19:52;15.80;;;8.40;;
65009;SDS011;51556;50.002;22.014;2023-01-13T15:22:18;11.10;;;6.00;;
65009;SDS011;51556;50.002;22.014;2023-01-13T15:24:43;12.90;;;7.00;;
65009;SDS011;51556;50.002;22.014;2023-01-13T15:27:14;9.70;;;5.60;;
65009;SDS011;51556;50.002;22.014;2023-01-13T15:29:43;10.70;;;5.90;;
65009;SDS011;51556;50.002;22.014;2023-01-13T15:32:18;8.20;;;5.10;;
65009;SDS011;51556;50.002;22.014;2023-01-13T15:34:45;9.70;;;5.10;;
65009;SDS011;51556;50.002;22.014;2023-01-13T15:37:15;12.00;;;6.40;;
65009;SDS011;51556;50.002;22.014;2023-01-13T15:39:44;13.70;;;7.10;;
65009;SDS011;51556;50.002;22.014;2023-01-13T15:42:11;11.30;;;5.80;;
65009;SDS011;51556;50.002;22.014;2023-01-13T15:44:56;14.50;;;7.60;;
65009;SDS011;51556;50.002;22.014;2023-01-13T15:47:40;13.60;;;6.10;;
65009;SDS011;51556;50.002;22.014;2023-01-13T15:50:11;16.00;;;7.10;;
65009;SDS011;51556;50.002;22.014;2023-01-13T15:52:38;12.10;;;6.50;;
65009;SDS011;51556;50.002;22.014;2023-01-13T15:55:04;13.20;;;7.30;;
65009;SDS011;51556;50.002;22.014;2023-01-13T15:57:30;10.40;;;6.10;;
65009;SDS011;51556;50.002;22.014;2023-01-13T16:00:02;13.40;;;6.80;;
65009;SDS011;51556;50.002;22.014;2023-01-13T16:02:32;16.90;;;7.90;;
65009;SDS011;51556;50.002;22.014;2023-01-13T16:04:57;16.10;;;7.60;;
65009;SDS011;51556;50.002;22.014;2023-01-13T16:07:23;11.60;;;6.70;;
65009;SDS011;51556;50.002;22.014;2023-01-13T16:09:49;15.10;;;7.10;;
65009;SDS011;51556;50.002;22.014;2023-01-13T16:12:15;12.80;;;6.70;;
65009;SDS011;51556;50.002;22.014;2023-01-13T16:14:41;12.10;;;6.60;;
65009;SDS011;51556;50.002;22.014;2023-01-13T16:17:25;14.10;;;8.10;;
65009;SDS011;51556;50.002;22.014;2023-01-13T16:19:54;11.00;;;6.00;;
65009;SDS011;51556;50.002;22.014;2023-01-13T16:22:20;16.10;;;9.00;;
65009;SDS011;51556;50.002;22.014;2023-01-13T16:24:45;13.50;;;6.90;;
65009;SDS011;51556;50.002;22.014;2023-01-13T16:27:18;16.70;;;7.50;;
65009;SDS011;51556;50.002;22.014;2023-01-13T16:29:46;13.70;;;7.90;;
65009;SDS011;51556;50.002;22.014;2023-01-13T16:32:12;12.80;;;7.30;;
65009;SDS011;51556;50.002;22.014;2023-01-13T16:34:38;11.30;;;6.70;;
65009;SDS011;51556;50.002;22.014;2023-01-13T16:39:51;12.10;;;6.50;;
65009;SDS011;51556;50.002;22.014;2023-01-13T16:42:18;15.30;;;7.50;;
65009;SDS011;51556;50.002;22.014;2023-01-13T16:44:44;12.70;;;6.60;;
65009;SDS011;51556;50.002;22.014;2023-01-13T16:47:16;9.00;;;5.80;;
65009;SDS011;51556;50.002;22.014;2023-01-13T16:49:42;14.00;;;7.70;;
65009;SDS011;51556;50.002;22.014;2023-01-13T16:52:08;15.30;;;8.70;;
65009;SDS011;51556;50.002;22.014;2023-01-13T16:54:33;10.40;;;6.30;;
65009;SDS011;51556;50.002;22.014;2023-01-13T16:56:59;13.10;;;7.00;;
65009;SDS011;51556;50.002;22.014;2023-01-13T16:59:24;10.60;;;6.40;;
65009;SDS011;51556;50.002;22.014;2023-01-13T17:01:49;11.50;;;6.30;;
65009;SDS011;51556;50.002;22.014;2023-01-13T17:04:17;13.70;;;7.10;;
65009;SDS011;51556;50.002;22.014;2023-01-13T17:06:47;11.90;;;6.40;;
65009;SDS011;51556;50.002;22.014;2023-01-13T17:09:21;12.20;;;6.70;;
65009;SDS011;51556;50.002;22.014;2023-01-13T17:11:49;11.50;;;6.30;;
65009;SDS011;51556;50.002;22.014;2023-01-13T17:14:15;10.20;;;6.30;;
65009;SDS011;51556;50.002;22.014;2023-01-13T17:16:42;9.80;;;5.70;;
65009;SDS011;51556;50.002;22.014;2023-01-13T17:19:08;12.10;;;5.80;;
65009;SDS011;51556;50.002;22.014;2023-01-13T17:21:35;8.80;;;5.10;;
65009;SDS011;51556;50.002;22.014;2023-01-13T17:24:00;11.90;;;5.70;;
65009;SDS011;51556;50.002;22.014;2023-01-13T17:26:27;9.80;;;5.40;;
65009;SDS011;51556;50.002;22.014;2023-01-13T17:28:57;10.20;;;5.90;;
65009;SDS011;51556;50.002;22.014;2023-01-13T17:31:23;10.80;;;6.60;;
65009;SDS011;51556;50.002;22.014;2023-01-13T17:33:49;10.60;;;5.60;;
65009;SDS011;51556;50.002;22.014;2023-01-13T17:36:14;10.00;;;4.80;;